createdAt,value
2018-06-23T00:01:19.489Z,11.17
2018-06-23T00:03:46.633Z,11.04
2018-06-23T00:06:13.768Z,10.99
2018-06-23T00:08:40.919Z,10.72
2018-06-23T00:11:08.059Z,10.77
2018-06-23T00:13:35.189Z,10.65
2018-06-23T00:16:02.258Z,10.82
2018-06-23T00:18:29.452Z,10.72
2018-06-23T00:20:56.585Z,10.74
2018-06-23T00:23:23.708Z,10.82
2018-06-23T00:25:56.546Z,10.75
2018-06-23T00:28:23.712Z,10.69
2018-06-23T00:30:50.875Z,10.69
2018-06-23T00:33:18.007Z,10.66
2018-06-23T00:35:45.120Z,10.57
2018-06-23T00:38:12.281Z,10.45
2018-06-23T00:40:39.420Z,10.45
2018-06-23T00:43:06.538Z,10.40
2018-06-23T00:45:33.661Z,10.38
2018-06-23T00:48:00.782Z,10.40
2018-06-23T00:50:27.925Z,10.40
2018-06-23T00:52:55.045Z,10.36
2018-06-23T00:55:22.183Z,10.33
2018-06-23T00:57:49.263Z,10.30
2018-06-23T01:00:17.500Z,10.37
2018-06-23T01:02:44.641Z,10.28
2018-06-23T01:05:11.753Z,10.12
2018-06-23T01:07:38.868Z,10.01
2018-06-23T01:10:06.200Z,10.08
2018-06-23T01:12:33.356Z,10.05
2018-06-23T01:15:00.479Z,10.14
2018-06-23T01:17:27.624Z,10.25
2018-06-23T01:19:54.744Z,10.30
2018-06-23T01:22:21.953Z,10.20
2018-06-23T01:24:49.120Z,10.09
2018-06-23T01:27:16.291Z,10.01
2018-06-23T01:29:43.455Z,9.97
2018-06-23T01:32:10.615Z,9.90
2018-06-23T01:34:37.712Z,9.77
2018-06-23T01:37:04.836Z,9.62
2018-06-23T01:39:31.984Z,9.52
2018-06-23T01:41:59.135Z,9.36
2018-06-23T01:44:26.473Z,9.34
2018-06-23T01:46:53.575Z,8.92
2018-06-23T01:49:20.719Z,9.30
2018-06-23T01:51:47.864Z,9.24
2018-06-23T01:54:15.046Z,9.25
2018-06-23T01:56:42.184Z,9.25
2018-06-23T01:59:09.372Z,9.23
2018-06-23T02:01:36.601Z,9.21
2018-06-23T02:04:03.920Z,9.11
2018-06-23T02:06:31.124Z,8.96
2018-06-23T02:08:58.251Z,9.17
2018-06-23T02:11:25.408Z,9.07
2018-06-23T02:13:58.393Z,8.99
2018-06-23T02:16:31.268Z,9.05
2018-06-23T02:19:03.968Z,8.96
2018-06-23T02:21:37.035Z,9.10
2018-06-23T02:24:09.825Z,9.18
2018-06-23T02:26:42.832Z,9.17
2018-06-23T02:29:15.791Z,9.13
2018-06-23T02:31:48.518Z,8.94
2018-06-23T02:34:21.594Z,8.96
2018-06-23T02:36:48.772Z,8.89
2018-06-23T02:39:15.868Z,9.07
2018-06-23T02:41:43.004Z,8.78
2018-06-23T02:44:10.155Z,8.87
2018-06-23T02:46:37.337Z,8.89
2018-06-23T02:49:04.588Z,8.66
2018-06-23T02:51:31.703Z,8.51
2018-06-23T02:53:58.852Z,8.59
2018-06-23T02:56:25.973Z,8.77
2018-06-23T02:58:53.116Z,8.72
2018-06-23T03:01:20.332Z,8.65
2018-06-23T03:03:47.512Z,8.62
2018-06-23T03:06:14.637Z,8.67
2018-06-23T03:08:41.761Z,8.46
2018-06-23T03:11:09.236Z,8.55
2018-06-23T03:13:36.376Z,8.72
2018-06-23T03:16:03.567Z,8.74
2018-06-23T03:18:30.646Z,8.80
2018-06-23T03:20:57.815Z,8.97
2018-06-23T03:23:25.036Z,9.00
2018-06-23T03:25:52.191Z,9.08
2018-06-23T03:28:19.381Z,9.14
2018-06-23T03:30:46.830Z,9.07
2018-06-23T03:33:13.984Z,8.75
2018-06-23T03:35:41.144Z,8.86
2018-06-23T03:38:08.336Z,8.78
2018-06-23T03:40:35.545Z,8.51
2018-06-23T03:43:02.710Z,8.55
2018-06-23T03:45:29.825Z,8.59
2018-06-23T03:47:56.964Z,8.62
2018-06-23T03:50:24.133Z,8.80
2018-06-23T03:52:51.333Z,8.86
2018-06-23T03:55:18.460Z,9.01
2018-06-23T03:57:45.581Z,9.01
2018-06-23T04:00:12.831Z,9.06
2018-06-23T04:02:39.985Z,9.14
2018-06-23T04:05:07.125Z,9.24
2018-06-23T04:07:34.497Z,9.30
2018-06-23T04:10:01.658Z,9.15
2018-06-23T04:12:28.808Z,9.20
2018-06-23T04:14:55.921Z,9.37
2018-06-23T04:17:23.136Z,9.47
2018-06-23T04:19:50.368Z,9.53
2018-06-23T04:22:17.520Z,9.68
2018-06-23T04:24:44.671Z,9.86
2018-06-23T04:27:11.904Z,9.98
2018-06-23T04:29:39.016Z,9.95
2018-06-23T04:32:06.162Z,10.00
2018-06-23T04:34:33.285Z,10.14
2018-06-23T04:37:00.480Z,10.25
2018-06-23T04:39:27.652Z,10.28
2018-06-23T04:41:54.792Z,10.27
2018-06-23T04:44:21.908Z,10.27
2018-06-23T04:46:49.035Z,10.18
2018-06-23T04:49:16.180Z,10.11
2018-06-23T04:51:43.401Z,10.09
2018-06-23T04:54:10.543Z,10.12
2018-06-23T04:56:37.705Z,10.19
2018-06-23T04:59:04.832Z,10.18
2018-06-23T05:01:32.091Z,10.31
2018-06-23T05:03:59.164Z,10.28
2018-06-23T05:06:26.274Z,10.29
2018-06-23T05:08:53.452Z,10.34
2018-06-23T05:11:20.620Z,10.30
2018-06-23T05:13:47.733Z,10.14
2018-06-23T05:16:14.863Z,10.34
2018-06-23T05:18:42.056Z,10.44
2018-06-23T05:21:09.191Z,10.48
2018-06-23T05:23:36.347Z,10.50
2018-06-23T05:26:03.504Z,10.31
2018-06-23T05:28:30.605Z,10.44
2018-06-23T05:30:57.752Z,10.40
2018-06-23T05:33:24.829Z,10.37
2018-06-23T05:35:52.493Z,10.36
2018-06-23T05:38:19.621Z,10.79
2018-06-23T05:40:46.753Z,10.64
2018-06-23T05:43:13.896Z,11.06
2018-06-23T05:45:41.068Z,11.25
2018-06-23T05:48:08.656Z,10.98
2018-06-23T05:50:35.844Z,10.94
2018-06-23T05:53:03.005Z,11.00
2018-06-23T05:55:30.169Z,11.20
2018-06-23T05:57:57.388Z,11.26
2018-06-23T06:00:24.604Z,11.43
2018-06-23T06:02:51.779Z,11.54
2018-06-23T06:05:19.016Z,11.28
2018-06-23T06:07:46.076Z,11.23
2018-06-23T06:10:13.217Z,10.91
2018-06-23T06:12:40.367Z,11.18
2018-06-23T06:15:08.360Z,10.93
2018-06-23T06:17:38.461Z,11.30
2018-06-23T06:20:08.045Z,11.67
2018-06-23T06:22:36.325Z,12.03
2018-06-23T06:25:04.213Z,11.94
2018-06-23T06:27:31.363Z,11.59
2018-06-23T06:29:58.849Z,11.49
2018-06-23T06:32:26.568Z,11.42
2018-06-23T06:34:53.725Z,12.45
2018-06-23T06:37:20.923Z,11.95
2018-06-23T06:39:48.091Z,11.88
2018-06-23T06:42:15.490Z,11.34
2018-06-23T06:44:42.711Z,11.17
2018-06-23T06:47:11.074Z,11.52
2018-06-23T06:49:38.297Z,11.95
2018-06-23T06:52:05.723Z,11.78
2018-06-23T06:54:32.908Z,11.92
2018-06-23T06:57:00.076Z,11.79
2018-06-23T06:59:27.203Z,11.60
2018-06-23T07:01:54.356Z,11.67
2018-06-23T07:04:21.488Z,11.69
2018-06-23T07:06:48.629Z,11.96
2018-06-23T07:09:15.793Z,12.25
2018-06-23T07:11:43.788Z,12.72
2018-06-23T07:14:10.915Z,12.59
2018-06-23T07:16:38.940Z,11.99
2018-06-23T07:19:06.097Z,11.73
2018-06-23T07:21:33.413Z,11.46
2018-06-23T07:24:01.166Z,11.60
2018-06-23T07:26:28.233Z,11.90
2018-06-23T07:28:55.519Z,12.26
2018-06-23T07:31:22.740Z,12.62
2018-06-23T07:33:50.413Z,12.51
2018-06-23T07:36:17.664Z,12.81
2018-06-23T07:38:44.865Z,13.52
2018-06-23T07:41:11.996Z,13.36
2018-06-23T07:43:39.125Z,13.01
2018-06-23T07:46:06.407Z,13.44
2018-06-23T07:48:33.551Z,12.80
2018-06-23T07:51:00.703Z,13.12
2018-06-23T07:53:28.238Z,13.68
2018-06-23T07:55:55.457Z,12.84
2018-06-23T07:58:22.601Z,12.86
2018-06-23T08:00:49.749Z,12.84
2018-06-23T08:03:16.864Z,12.99
2018-06-23T08:05:44.051Z,12.81
2018-06-23T08:08:11.141Z,12.41
2018-06-23T08:10:38.624Z,12.29
2018-06-23T08:13:06.350Z,12.58
2018-06-23T08:15:33.504Z,13.00
2018-06-23T08:18:00.648Z,12.83
2018-06-23T08:20:27.799Z,13.12
2018-06-23T08:22:54.914Z,13.38
2018-06-23T08:25:22.061Z,13.49
2018-06-23T08:27:49.140Z,12.59
2018-06-23T08:30:16.246Z,12.59
2018-06-23T08:32:43.408Z,13.21
2018-06-23T08:35:10.541Z,13.71
2018-06-23T08:37:37.752Z,13.24
2018-06-23T08:40:04.905Z,13.86
2018-06-23T08:42:32.070Z,13.73
2018-06-23T08:44:59.156Z,13.95
2018-06-23T08:47:33.266Z,14.12
2018-06-23T08:50:00.477Z,13.67
2018-06-23T08:52:27.631Z,14.35
2018-06-23T08:54:54.765Z,14.53
2018-06-23T08:57:21.951Z,14.00
2018-06-23T08:59:49.085Z,13.77
2018-06-23T09:02:16.248Z,14.24
2018-06-23T09:04:43.335Z,14.94
2018-06-23T09:07:10.519Z,14.70
2018-06-23T09:09:37.757Z,14.62
2018-06-23T09:12:04.983Z,14.32
2018-06-23T09:14:32.613Z,13.95
2018-06-23T09:16:59.799Z,14.26
2018-06-23T09:19:26.977Z,14.66
2018-06-23T09:21:54.178Z,14.78
2018-06-23T09:24:21.316Z,14.98
2018-06-23T09:26:48.468Z,15.20
2018-06-23T09:29:15.612Z,14.39
2018-06-23T09:31:42.817Z,14.32
2018-06-23T09:34:09.925Z,14.28
2018-06-23T09:36:37.075Z,14.06
2018-06-23T09:39:06.752Z,14.86
2018-06-23T09:41:33.956Z,15.14
2018-06-23T09:44:01.173Z,15.18
2018-06-23T09:46:28.309Z,15.49
2018-06-23T09:48:55.500Z,15.50
2018-06-23T09:51:22.640Z,15.43
2018-06-23T09:53:49.787Z,14.75
2018-06-23T09:56:16.944Z,15.38
2018-06-23T09:58:44.065Z,15.43
2018-06-23T10:01:11.209Z,15.14
2018-06-23T10:03:38.330Z,15.17
2018-06-23T10:06:05.472Z,15.65
2018-06-23T10:08:32.694Z,15.74
2018-06-23T10:10:59.836Z,16.00
2018-06-23T10:13:26.961Z,16.07
2018-06-23T10:15:54.121Z,16.03
2018-06-23T10:18:21.237Z,15.75
2018-06-23T10:20:48.405Z,16.12
2018-06-23T10:23:15.558Z,16.23
2018-06-23T10:25:42.686Z,15.71
2018-06-23T10:28:09.837Z,15.58
2018-06-23T10:30:36.946Z,15.46
2018-06-23T10:33:04.161Z,15.98
2018-06-23T10:35:31.283Z,15.71
2018-06-23T10:37:58.499Z,15.70
2018-06-23T10:40:25.602Z,16.00
2018-06-23T10:42:52.798Z,15.54
2018-06-23T10:47:53.841Z,15.47
2018-06-23T10:50:20.971Z,15.42
2018-06-23T10:52:48.180Z,15.03
2018-06-23T10:55:15.316Z,15.12
2018-06-23T10:57:42.498Z,15.43
2018-06-23T11:00:09.633Z,15.30
2018-06-23T11:02:36.824Z,15.33
2018-06-23T11:05:04.220Z,15.17
2018-06-23T11:07:31.384Z,15.08
2018-06-23T11:09:58.552Z,15.22
2018-06-23T11:12:25.714Z,15.13
2018-06-23T11:14:53.116Z,15.32
2018-06-23T11:17:20.342Z,15.11
2018-06-23T11:19:47.449Z,15.27
2018-06-23T11:22:14.553Z,15.07
2018-06-23T11:24:48.531Z,14.72
2018-06-23T11:27:15.653Z,14.71
2018-06-23T11:29:43.064Z,14.71
2018-06-23T11:32:10.233Z,14.63
2018-06-23T11:34:37.403Z,14.74
2018-06-23T11:37:04.913Z,14.31
2018-06-23T11:39:32.096Z,14.66
2018-06-23T11:41:59.300Z,14.81
2018-06-23T11:44:26.471Z,15.12
2018-06-23T11:46:53.598Z,14.93
2018-06-23T11:49:20.732Z,14.67
2018-06-23T11:51:47.927Z,14.70
2018-06-23T11:54:15.116Z,14.65
2018-06-23T11:56:42.313Z,14.83
2018-06-23T11:59:09.425Z,15.31
2018-06-23T12:01:36.620Z,15.52
2018-06-23T12:04:03.766Z,15.26
2018-06-23T12:06:30.887Z,15.00
2018-06-23T12:08:58.018Z,14.82
2018-06-23T12:11:25.169Z,14.79
2018-06-23T12:13:52.260Z,14.74
2018-06-23T12:16:19.411Z,14.53
2018-06-23T12:18:46.549Z,14.55
2018-06-23T12:21:13.702Z,14.75
2018-06-23T12:23:40.928Z,15.06
2018-06-23T12:26:08.100Z,15.64
2018-06-23T12:28:35.240Z,15.36
2018-06-23T12:31:02.423Z,15.61
2018-06-23T12:33:29.533Z,15.72
2018-06-23T12:35:56.671Z,15.46
2018-06-23T12:38:23.824Z,15.05
2018-06-23T12:40:50.973Z,15.04
2018-06-23T12:43:18.060Z,15.40
2018-06-23T12:45:45.260Z,15.17
2018-06-23T12:48:12.416Z,14.94
2018-06-23T12:50:39.605Z,15.02
2018-06-23T12:53:06.799Z,14.75
2018-06-23T12:55:33.881Z,15.08
2018-06-23T12:58:01.034Z,14.87
2018-06-23T13:00:28.202Z,15.33
2018-06-23T13:02:55.453Z,15.10
2018-06-23T13:05:22.657Z,14.95
2018-06-23T13:07:49.868Z,14.68
2018-06-23T13:10:17.079Z,14.78
2018-06-23T13:12:44.289Z,15.05
2018-06-23T13:15:11.492Z,15.09
2018-06-23T13:17:38.693Z,15.31
2018-06-23T13:20:05.901Z,15.14
2018-06-23T13:22:33.034Z,15.30
2018-06-23T13:25:00.201Z,14.98
2018-06-23T13:27:27.464Z,15.38
2018-06-23T13:29:54.733Z,15.41
2018-06-23T13:32:21.943Z,15.08
2018-06-23T13:34:49.189Z,15.02
2018-06-23T13:37:16.296Z,15.04
2018-06-23T13:39:43.561Z,15.14
2018-06-23T13:42:10.829Z,15.19
2018-06-23T13:44:37.960Z,14.96
2018-06-23T13:47:05.171Z,14.94
2018-06-23T13:49:32.370Z,14.89
2018-06-23T13:51:59.503Z,14.65
2018-06-23T13:54:26.703Z,14.57
2018-06-23T13:56:53.988Z,14.68
2018-06-23T13:59:21.115Z,14.64
2018-06-23T14:01:48.296Z,14.58
2018-06-23T14:04:15.650Z,14.57
2018-06-23T14:06:42.809Z,14.55
2018-06-23T14:09:11.395Z,14.76
2018-06-23T14:11:38.679Z,14.63
2018-06-23T14:14:05.896Z,14.99
2018-06-23T14:16:33.230Z,14.97
2018-06-23T14:19:00.410Z,15.25
2018-06-23T14:21:27.784Z,14.92
2018-06-23T14:23:54.989Z,15.15
2018-06-23T14:26:22.187Z,15.20
2018-06-23T14:28:49.399Z,14.69
2018-06-23T14:31:16.636Z,15.06
2018-06-23T14:33:43.852Z,15.42
2018-06-23T14:36:11.021Z,15.44
2018-06-23T14:38:38.226Z,15.43
2018-06-23T14:41:05.473Z,15.66
2018-06-23T14:43:32.687Z,15.06
2018-06-23T14:45:59.851Z,15.17
2018-06-23T14:48:27.048Z,15.00
2018-06-23T14:50:54.236Z,14.88
2018-06-23T14:53:21.406Z,14.89
2018-06-23T14:55:48.582Z,14.87
2018-06-23T14:58:15.774Z,14.95
2018-06-23T15:00:42.951Z,14.87
2018-06-23T15:03:10.117Z,14.69
2018-06-23T15:05:37.303Z,14.88
2018-06-23T15:08:16.277Z,14.62
2018-06-23T15:10:55.021Z,14.61
2018-06-23T15:13:22.185Z,14.52
2018-06-23T15:15:49.344Z,14.66
2018-06-23T15:18:16.472Z,14.30
2018-06-23T15:20:43.612Z,14.30
2018-06-23T15:23:11.025Z,14.07
2018-06-23T15:25:38.247Z,14.18
2018-06-23T15:28:05.454Z,13.97
2018-06-23T15:30:32.674Z,14.05
2018-06-23T15:32:59.973Z,14.03
2018-06-23T15:35:27.181Z,13.89
2018-06-23T15:37:54.410Z,13.87
2018-06-23T15:40:21.669Z,13.67
2018-06-23T15:42:49.005Z,13.64
2018-06-23T15:45:16.518Z,13.72
2018-06-23T15:47:44.045Z,13.93
2018-06-23T15:50:11.252Z,13.69
2018-06-23T15:52:39.284Z,14.08
2018-06-23T15:55:06.441Z,14.21
2018-06-23T15:57:33.633Z,14.07
2018-06-23T16:00:00.833Z,14.03
2018-06-23T16:02:28.041Z,13.99
2018-06-23T16:04:58.407Z,14.00
2018-06-23T16:07:26.080Z,13.97
2018-06-23T16:09:53.632Z,13.81
2018-06-23T16:12:21.119Z,13.75
2018-06-23T16:14:48.331Z,13.68
2018-06-23T16:17:15.782Z,13.59
2018-06-23T16:19:43.019Z,13.42
2018-06-23T16:22:10.193Z,13.26
2018-06-23T16:24:37.349Z,12.99
2018-06-23T16:27:04.492Z,12.03
2018-06-23T16:29:31.665Z,12.44
2018-06-23T16:31:58.892Z,12.46
2018-06-23T16:34:26.088Z,12.33
2018-06-23T16:36:53.309Z,12.46
2018-06-23T16:39:20.457Z,12.53
2018-06-23T16:41:47.652Z,12.71
2018-06-23T16:44:14.825Z,12.64
2018-06-23T16:46:42.042Z,12.47
2018-06-23T16:49:09.292Z,12.87
2018-06-23T16:51:36.662Z,13.11
2018-06-23T16:54:03.828Z,13.23
2018-06-23T16:56:31.052Z,13.39
2018-06-23T16:58:58.244Z,13.51
2018-06-23T17:01:25.534Z,13.15
2018-06-23T17:03:52.782Z,13.09
2018-06-23T17:06:19.958Z,13.18
2018-06-23T17:08:47.099Z,12.99
2018-06-23T17:11:14.321Z,13.08
2018-06-23T17:13:41.478Z,12.74
2018-06-23T17:16:08.660Z,12.77
2018-06-23T17:18:35.824Z,12.69
2018-06-23T17:21:03.032Z,12.86
2018-06-23T17:23:30.183Z,12.91
2018-06-23T17:25:57.332Z,12.87
2018-06-23T17:28:24.494Z,12.87
2018-06-23T17:30:51.629Z,13.01
2018-06-23T17:33:18.822Z,12.76
2018-06-23T17:35:45.993Z,13.24
2018-06-23T17:38:13.105Z,13.10
2018-06-23T17:40:40.236Z,12.80
2018-06-23T17:43:07.436Z,12.71
2018-06-23T17:45:34.591Z,12.86
2018-06-23T17:48:01.776Z,13.16
2018-06-23T17:50:28.948Z,13.02
2018-06-23T17:52:56.135Z,12.98
2018-06-23T17:55:23.305Z,12.87
2018-06-23T17:57:50.683Z,13.16
2018-06-23T18:00:17.711Z,12.75
2018-06-23T18:02:45.056Z,12.93
2018-06-23T18:05:12.184Z,13.14
2018-06-23T18:07:39.352Z,12.88
2018-06-23T18:10:06.540Z,13.05
2018-06-23T18:12:33.720Z,12.74
2018-06-23T18:15:00.833Z,12.81
2018-06-23T18:17:27.964Z,12.89
2018-06-23T18:19:55.105Z,12.77
2018-06-23T18:22:22.259Z,13.20
2018-06-23T18:24:49.391Z,13.18
2018-06-23T18:27:16.500Z,12.83
2018-06-23T18:29:43.684Z,12.70
2018-06-23T18:32:10.842Z,12.90
2018-06-23T18:34:37.973Z,12.76
2018-06-23T18:37:05.133Z,12.76
2018-06-23T18:39:32.318Z,12.90
2018-06-23T18:41:59.493Z,12.71
2018-06-23T18:44:26.644Z,12.79
2018-06-23T18:46:54.196Z,12.82
2018-06-23T18:49:21.380Z,12.69
2018-06-23T18:51:48.527Z,12.74
2018-06-23T18:54:15.743Z,12.82
2018-06-23T18:56:42.881Z,12.86
2018-06-23T18:59:10.058Z,12.84
2018-06-23T19:01:37.432Z,12.90
2018-06-23T19:04:04.829Z,12.83
2018-06-23T19:06:32.094Z,12.91
2018-06-23T19:08:59.259Z,12.84
2018-06-23T19:11:26.472Z,12.80
2018-06-23T19:13:53.607Z,12.79
2018-06-23T19:16:20.904Z,12.65
2018-06-23T19:18:48.047Z,12.74
2018-06-23T19:21:15.263Z,12.61
2018-06-23T19:23:42.369Z,12.55
2018-06-23T19:26:09.517Z,12.59
2018-06-23T19:28:36.712Z,12.59
2018-06-23T19:31:03.811Z,12.83
2018-06-23T19:33:31.039Z,12.78
2018-06-23T19:35:58.151Z,12.89
2018-06-23T19:38:25.336Z,13.09
2018-06-23T19:40:52.513Z,12.84
2018-06-23T19:43:19.621Z,12.82
2018-06-23T19:45:46.735Z,12.89
2018-06-23T19:48:13.824Z,12.92
2018-06-23T19:50:40.969Z,13.03
2018-06-23T19:53:08.160Z,12.88
2018-06-23T19:55:35.291Z,13.05
2018-06-23T19:58:02.415Z,13.01
2018-06-23T20:00:29.626Z,12.98
2018-06-23T20:02:56.833Z,12.84
2018-06-23T20:05:24.080Z,12.85
2018-06-23T20:07:51.255Z,12.97
2018-06-23T20:10:18.442Z,12.99
2018-06-23T20:12:45.592Z,12.91
2018-06-23T20:15:12.865Z,12.62
2018-06-23T20:17:40.077Z,12.63
2018-06-23T20:20:07.315Z,12.69
2018-06-23T20:22:34.511Z,12.79
2018-06-23T20:25:01.788Z,12.66
2018-06-23T20:27:28.932Z,12.99
2018-06-23T20:29:56.505Z,12.98
2018-06-23T20:32:23.813Z,13.12
2018-06-23T20:34:51.005Z,13.08
2018-06-23T20:37:18.176Z,13.05
2018-06-23T20:39:45.351Z,12.95
2018-06-23T20:42:12.516Z,12.94
2018-06-23T20:44:39.720Z,12.80
2018-06-23T20:47:06.829Z,12.76
2018-06-23T20:49:34.035Z,12.80
2018-06-23T20:52:01.576Z,12.96
2018-06-23T20:54:29.012Z,12.95
2018-06-23T20:56:56.296Z,12.79
2018-06-23T20:59:23.463Z,12.90
2018-06-23T21:01:50.620Z,12.78
2018-06-23T21:04:17.844Z,12.89
2018-06-23T21:06:45.037Z,12.57
2018-06-23T21:09:12.228Z,12.61
2018-06-23T21:11:39.476Z,12.60
2018-06-23T21:14:06.969Z,12.38
2018-06-23T21:16:34.200Z,12.35
2018-06-23T21:19:01.478Z,12.42
2018-06-23T21:21:28.751Z,12.29
2018-06-23T21:23:55.996Z,12.46
2018-06-23T21:26:23.355Z,12.50
2018-06-23T21:28:50.566Z,12.41
2018-06-23T21:31:17.700Z,12.42
2018-06-23T21:33:45.004Z,12.20
2018-06-23T21:36:12.181Z,12.19
2018-06-23T21:38:39.383Z,12.32
2018-06-23T21:41:06.763Z,12.47
2018-06-23T21:43:33.943Z,12.55
2018-06-23T21:46:01.111Z,12.43
2018-06-23T21:48:28.246Z,12.39
2018-06-23T21:50:55.420Z,12.40
2018-06-23T21:53:22.595Z,12.34
2018-06-23T21:55:49.783Z,12.32
2018-06-23T21:58:17.649Z,12.16
2018-06-23T22:00:45.325Z,12.19
2018-06-23T22:03:13.536Z,12.11
2018-06-23T22:05:40.785Z,12.26
2018-06-23T22:08:08.475Z,12.11
2018-06-23T22:10:35.737Z,12.03
2018-06-23T22:13:03.184Z,12.05
2018-06-23T22:15:30.412Z,12.13
2018-06-23T22:17:57.554Z,12.20
2018-06-23T22:20:24.801Z,12.30
2018-06-23T22:22:52.406Z,12.39
2018-06-23T22:25:19.878Z,12.36
2018-06-23T22:27:47.070Z,12.41
2018-06-23T22:30:14.418Z,12.41
2018-06-23T22:32:41.644Z,12.17
2018-06-23T22:35:09.281Z,12.24
2018-06-23T22:37:36.899Z,12.18
2018-06-23T22:40:04.132Z,12.25
2018-06-23T22:42:31.321Z,12.21
2018-06-23T22:44:58.724Z,12.34
2018-06-23T22:47:25.841Z,12.35
2018-06-23T22:49:53.015Z,12.40
2018-06-23T22:52:20.245Z,12.23
2018-06-23T22:54:47.733Z,12.20
2018-06-23T22:57:15.230Z,12.36
2018-06-23T22:59:42.418Z,12.27
2018-06-23T23:02:09.585Z,11.99
2018-06-23T23:04:36.832Z,11.91
2018-06-23T23:07:04.164Z,11.89
2018-06-23T23:09:31.331Z,12.18
2018-06-23T23:11:58.452Z,12.34
2018-06-23T23:14:25.599Z,12.27
2018-06-23T23:16:52.776Z,12.19
2018-06-23T23:19:19.921Z,12.04
2018-06-23T23:21:47.090Z,12.06
2018-06-23T23:24:14.257Z,12.09
2018-06-23T23:26:41.479Z,12.16
2018-06-23T23:29:08.612Z,12.39
2018-06-23T23:31:35.745Z,12.34
2018-06-23T23:34:02.900Z,12.11
2018-06-23T23:36:30.012Z,11.92
2018-06-23T23:38:57.109Z,11.94
2018-06-23T23:41:24.281Z,12.00
2018-06-23T23:43:51.415Z,12.13
2018-06-23T23:46:18.560Z,12.25
2018-06-23T23:48:45.704Z,12.18
2018-06-23T23:51:12.810Z,12.18
2018-06-23T23:53:39.968Z,12.08
2018-06-23T23:56:07.151Z,12.05
2018-06-23T23:58:34.269Z,12.19
